createdAt,value
2017-05-01T00:00:39.028Z,11.46
2017-05-01T00:03:05.733Z,11.72
2017-05-01T00:05:32.440Z,13.00
2017-05-01T00:07:59.162Z,11.66
2017-05-01T00:10:25.900Z,13.60
2017-05-01T00:12:52.652Z,13.80
2017-05-01T00:15:19.398Z,13.78
2017-05-01T00:17:46.136Z,14.50
2017-05-01T00:20:12.878Z,15.06
2017-05-01T00:22:39.622Z,14.23
2017-05-01T00:25:06.354Z,13.72
2017-05-01T00:27:33.205Z,12.42
2017-05-01T00:30:00.074Z,12.58
2017-05-01T00:32:26.846Z,13.24
2017-05-01T00:34:53.560Z,11.92
2017-05-01T00:37:20.256Z,12.88
2017-05-01T00:39:47.002Z,13.52
2017-05-01T00:42:13.694Z,13.24
2017-05-01T00:44:40.417Z,13.08
2017-05-01T00:47:07.115Z,13.00
2017-05-01T00:49:33.809Z,14.04
2017-05-01T00:52:00.510Z,13.18
2017-05-01T00:54:27.232Z,12.20
2017-05-01T00:56:53.939Z,11.98
2017-05-01T00:59:20.637Z,13.04
2017-05-01T01:01:47.349Z,12.16
2017-05-01T01:04:14.066Z,12.26
2017-05-01T01:06:40.767Z,12.56
2017-05-01T01:09:13.206Z,13.18
2017-05-01T01:11:39.909Z,13.04
2017-05-01T01:14:06.614Z,13.68
2017-05-01T01:16:33.320Z,13.80
2017-05-01T01:19:00.056Z,13.64
2017-05-01T01:21:26.814Z,14.16
2017-05-01T01:23:53.545Z,14.92
2017-05-01T01:26:20.262Z,13.46
2017-05-01T01:28:46.988Z,14.47
2017-05-01T01:31:14.696Z,13.67
2017-05-01T01:33:41.437Z,14.13
2017-05-01T01:36:08.170Z,14.54
2017-05-01T01:38:34.876Z,14.72
2017-05-01T01:41:01.566Z,15.62
2017-05-01T01:43:28.283Z,14.44
2017-05-01T01:45:55.026Z,14.52
2017-05-01T01:48:21.791Z,13.94
2017-05-01T01:50:48.518Z,14.64
2017-05-01T01:53:15.287Z,14.92
2017-05-01T01:55:41.997Z,13.90
2017-05-01T01:58:08.726Z,14.46
2017-05-01T02:00:35.464Z,14.66
2017-05-01T02:03:02.162Z,15.22
2017-05-01T02:05:28.873Z,14.12
2017-05-01T02:07:55.593Z,15.28
2017-05-01T02:10:22.335Z,14.22
2017-05-01T02:12:49.251Z,14.52
2017-05-01T02:15:15.974Z,15.02
2017-05-01T02:17:42.672Z,13.64
2017-05-01T02:20:09.379Z,16.65
2017-05-01T02:22:36.095Z,15.80
2017-05-01T02:25:02.790Z,15.04
2017-05-01T02:27:29.503Z,15.55
2017-05-01T02:29:56.199Z,14.96
2017-05-01T02:32:22.951Z,15.23
2017-05-01T02:34:49.657Z,15.44
2017-05-01T02:37:16.369Z,14.63
2017-05-01T02:39:43.039Z,15.70
2017-05-01T02:42:09.742Z,15.95
2017-05-01T02:44:36.444Z,15.66
2017-05-01T02:47:03.118Z,15.80
2017-05-01T02:49:29.801Z,15.63
2017-05-01T02:51:56.500Z,15.38
2017-05-01T02:54:23.184Z,14.62
2017-05-01T02:56:49.852Z,15.38
2017-05-01T02:59:16.583Z,15.67
2017-05-01T03:01:43.267Z,15.63
2017-05-01T03:04:09.944Z,16.54
2017-05-01T03:06:36.654Z,14.82
2017-05-01T03:09:03.341Z,15.73
2017-05-01T03:11:30.016Z,16.02
2017-05-01T03:13:56.771Z,15.85
2017-05-01T03:16:23.465Z,15.73
2017-05-01T03:18:50.154Z,16.62
2017-05-01T03:21:16.860Z,17.02
2017-05-01T03:23:43.553Z,16.23
2017-05-01T03:26:10.245Z,16.85
2017-05-01T03:28:36.954Z,16.58
2017-05-01T03:31:03.625Z,17.08
2017-05-01T03:33:30.334Z,16.75
2017-05-01T03:35:57.042Z,17.35
2017-05-01T03:38:23.726Z,17.00
2017-05-01T03:40:50.410Z,17.45
2017-05-01T03:43:17.298Z,17.07
2017-05-01T03:45:44.002Z,17.93
2017-05-01T03:48:10.683Z,17.50
2017-05-01T03:50:37.389Z,16.37
2017-05-01T03:53:04.078Z,17.40
2017-05-01T03:55:30.756Z,17.94
2017-05-01T03:57:57.456Z,17.77
2017-05-01T04:00:24.154Z,18.47
2017-05-01T04:02:50.838Z,18.02
2017-05-01T04:05:17.545Z,18.15
2017-05-01T04:07:44.236Z,18.65
2017-05-01T04:10:10.931Z,18.38
2017-05-01T04:12:37.641Z,17.67
2017-05-01T04:15:04.333Z,17.77
2017-05-01T04:17:31.019Z,15.60
2017-05-01T04:19:57.969Z,16.28
2017-05-01T04:22:24.661Z,16.95
2017-05-01T04:24:51.383Z,16.63
2017-05-01T04:27:18.081Z,17.73
2017-05-01T04:29:44.756Z,18.55
2017-05-01T04:32:11.433Z,17.70
2017-05-01T04:34:38.165Z,19.08
2017-05-01T04:37:04.869Z,18.57
2017-05-01T04:39:31.558Z,17.73
2017-05-01T04:41:58.276Z,17.13
2017-05-01T04:44:24.999Z,17.75
2017-05-01T04:46:51.720Z,17.87
2017-05-01T04:49:18.434Z,17.37
2017-05-01T04:51:45.121Z,17.33
2017-05-01T04:54:11.817Z,19.33
2017-05-01T04:56:38.525Z,19.38
2017-05-01T04:59:05.227Z,17.76
2017-05-01T05:01:31.908Z,16.53
2017-05-01T05:03:58.804Z,17.05
2017-05-01T05:06:25.488Z,17.90
2017-05-01T05:08:52.175Z,18.24
2017-05-01T05:11:18.884Z,18.57
2017-05-01T05:13:45.560Z,18.65
2017-05-01T05:16:12.245Z,18.83
2017-05-01T05:18:38.961Z,18.63
2017-05-01T05:21:05.634Z,18.62
2017-05-01T05:23:32.319Z,18.53
2017-05-01T05:25:59.032Z,19.86
2017-05-01T05:28:25.706Z,18.94
2017-05-01T05:30:52.434Z,20.08
2017-05-01T05:33:19.135Z,18.98
2017-05-01T05:35:45.821Z,19.62
2017-05-01T05:38:12.489Z,18.06
2017-05-01T05:40:39.203Z,19.18
2017-05-01T05:43:05.876Z,19.16
2017-05-01T05:45:32.570Z,18.48
2017-05-01T05:47:59.259Z,19.00
2017-05-01T05:50:25.949Z,18.80
2017-05-01T05:52:52.619Z,19.26
2017-05-01T05:55:19.335Z,19.46
2017-05-01T05:57:46.005Z,20.14
2017-05-01T06:00:12.697Z,19.18
2017-05-01T06:02:39.400Z,20.90
2017-05-01T06:05:06.081Z,21.20
2017-05-01T06:07:32.752Z,20.56
2017-05-01T06:09:59.467Z,21.64
2017-05-01T06:12:26.141Z,20.00
2017-05-01T06:14:52.832Z,20.86
2017-05-01T06:17:19.540Z,20.66
2017-05-01T06:19:46.215Z,21.22
2017-05-01T06:22:12.889Z,22.60
2017-05-01T06:24:39.578Z,20.54
2017-05-01T06:27:06.249Z,21.82
2017-05-01T06:29:32.925Z,21.86
2017-05-01T06:31:59.624Z,22.88
2017-05-01T06:34:26.305Z,20.90
2017-05-01T06:36:52.982Z,21.82
2017-05-01T06:39:19.689Z,21.88
2017-05-01T06:41:46.368Z,21.86
2017-05-01T06:44:13.045Z,22.40
2017-05-01T06:46:39.794Z,22.26
2017-05-01T06:49:06.482Z,21.78
2017-05-01T06:51:33.153Z,22.42
2017-05-01T06:53:59.859Z,21.82
2017-05-01T06:56:26.602Z,22.98
2017-05-01T06:58:53.275Z,22.10
2017-05-01T07:01:20.018Z,22.64
2017-05-01T07:03:46.690Z,21.78
2017-05-01T07:06:13.376Z,22.82
2017-05-01T07:08:40.085Z,22.04
2017-05-01T07:11:06.760Z,21.38
2017-05-01T07:13:33.432Z,21.68
2017-05-01T07:16:00.132Z,22.08
2017-05-01T07:18:26.818Z,22.96
2017-05-01T07:20:53.493Z,21.76
2017-05-01T07:23:20.188Z,22.14
2017-05-01T07:25:46.865Z,23.26
2017-05-01T07:28:13.544Z,22.04
2017-05-01T07:30:40.267Z,23.02
2017-05-01T07:33:06.938Z,22.44
2017-05-01T07:35:33.621Z,22.08
2017-05-01T07:38:00.302Z,22.82
2017-05-01T07:40:26.970Z,20.30
2017-05-01T07:42:53.640Z,22.88
2017-05-01T07:45:20.358Z,20.30
2017-05-01T07:47:47.033Z,21.78
2017-05-01T07:50:13.707Z,21.68
2017-05-01T07:52:40.414Z,22.30
2017-05-01T07:55:07.078Z,24.02
2017-05-01T07:57:33.768Z,21.20
2017-05-01T08:00:00.457Z,21.26
2017-05-01T08:02:27.149Z,21.74
2017-05-01T08:04:53.821Z,22.00
2017-05-01T08:07:20.520Z,21.34
2017-05-01T08:09:47.192Z,20.84
2017-05-01T08:12:14.310Z,21.74
2017-05-01T08:14:41.026Z,21.82
2017-05-01T08:17:07.700Z,22.12
2017-05-01T08:19:34.376Z,21.20
2017-05-01T08:22:01.135Z,20.44
2017-05-01T08:24:27.811Z,21.60
2017-05-01T08:26:54.477Z,20.70
2017-05-01T08:29:21.225Z,19.52
2017-05-01T08:31:47.901Z,20.48
2017-05-01T08:34:14.574Z,20.38
2017-05-01T08:36:41.288Z,20.42
2017-05-01T08:39:07.967Z,19.32
2017-05-01T08:41:34.661Z,19.20
2017-05-01T08:44:01.370Z,19.98
2017-05-01T08:46:28.062Z,26.98
2017-05-01T08:48:54.734Z,19.66
2017-05-01T08:51:21.476Z,19.52
2017-05-01T08:53:48.178Z,19.64
2017-05-01T08:56:14.850Z,19.12
2017-05-01T08:58:41.552Z,18.74
2017-05-01T09:01:08.221Z,19.32
2017-05-01T09:03:34.900Z,19.08
2017-05-01T09:06:01.600Z,17.36
2017-05-01T09:08:28.278Z,19.22
2017-05-01T09:10:54.954Z,17.02
2017-05-01T09:13:21.661Z,16.90
2017-05-01T09:15:48.329Z,17.24
2017-05-01T09:18:15.002Z,17.46
2017-05-01T09:20:41.686Z,14.76
2017-05-01T09:23:08.371Z,13.44
2017-05-01T09:25:35.044Z,15.62
2017-05-01T09:28:01.789Z,13.16
2017-05-01T09:30:28.466Z,12.98
2017-05-01T09:32:55.137Z,12.60
2017-05-01T09:35:21.840Z,15.50
2017-05-01T09:37:48.520Z,13.70
2017-05-01T09:40:15.205Z,13.40
2017-05-01T09:42:41.900Z,15.02
2017-05-01T09:45:08.571Z,13.24
2017-05-01T09:47:35.238Z,14.96
2017-05-01T09:50:01.936Z,14.10
2017-05-01T09:52:28.610Z,14.82
2017-05-01T09:54:55.277Z,13.02
2017-05-01T09:57:21.981Z,13.90
2017-05-01T09:59:48.657Z,14.50
2017-05-01T10:02:15.334Z,15.24
2017-05-01T10:04:43.098Z,14.66
2017-05-01T10:07:09.830Z,13.86
2017-05-01T10:09:37.349Z,14.32
2017-05-01T10:12:04.953Z,14.52
2017-05-01T10:14:31.649Z,12.86
2017-05-01T10:16:58.323Z,14.66
2017-05-01T10:19:25.062Z,13.38
2017-05-01T10:21:51.748Z,14.72
2017-05-01T10:24:18.417Z,14.80
2017-05-01T10:26:45.151Z,14.02
2017-05-01T10:29:11.823Z,13.20
2017-05-01T10:31:38.510Z,14.66
2017-05-01T10:34:06.566Z,15.20
2017-05-01T10:36:33.249Z,13.14
2017-05-01T10:38:59.962Z,13.98
2017-05-01T10:41:26.636Z,14.10
2017-05-01T10:43:53.742Z,17.20
2017-05-01T10:46:20.516Z,14.60
2017-05-01T10:48:47.184Z,16.92
2017-05-01T10:51:13.860Z,14.34
2017-05-01T10:53:40.572Z,15.52
2017-05-01T10:56:07.243Z,15.90
2017-05-01T10:58:33.912Z,15.60
2017-05-01T11:01:00.605Z,16.48
2017-05-01T11:03:27.286Z,15.92
2017-05-01T11:05:53.958Z,15.08
2017-05-01T11:08:20.654Z,15.60
2017-05-01T11:10:47.324Z,15.70
2017-05-01T11:13:14.016Z,16.82
2017-05-01T11:15:40.706Z,15.30
2017-05-01T11:18:07.381Z,16.68
2017-05-01T11:20:34.062Z,15.44
2017-05-01T11:23:00.757Z,18.40
2017-05-01T11:25:27.528Z,16.08
2017-05-01T11:27:54.205Z,17.10
2017-05-01T11:30:20.917Z,16.22
2017-05-01T11:32:47.581Z,16.82
2017-05-01T11:35:14.266Z,15.58
2017-05-01T11:37:40.977Z,17.46
2017-05-01T11:40:07.661Z,15.98
2017-05-01T11:42:34.337Z,15.96
2017-05-01T11:45:01.037Z,15.00
2017-05-01T11:47:27.717Z,16.30
2017-05-01T11:49:54.390Z,17.60
2017-05-01T11:52:21.084Z,16.26
2017-05-01T11:54:47.889Z,18.22
2017-05-01T11:57:14.567Z,18.70
2017-05-01T11:59:41.485Z,17.36
2017-05-01T12:02:08.153Z,18.92
2017-05-01T12:04:34.834Z,17.28
2017-05-01T12:07:01.560Z,18.14
2017-05-01T12:09:28.233Z,17.52
2017-05-01T12:11:54.900Z,15.88
2017-05-01T12:14:21.622Z,15.68
2017-05-01T12:16:48.341Z,16.76
2017-05-01T12:19:15.013Z,16.30
2017-05-01T12:21:41.701Z,15.92
2017-05-01T12:24:08.375Z,16.32
2017-05-01T12:26:35.051Z,16.56
2017-05-01T12:29:01.761Z,16.98
2017-05-01T12:31:29.403Z,16.74
2017-05-01T12:33:56.080Z,16.12
2017-05-01T12:36:22.799Z,16.48
2017-05-01T12:38:49.501Z,15.16
2017-05-01T12:41:16.168Z,18.12
2017-05-01T12:43:42.891Z,18.62
2017-05-01T12:46:09.571Z,18.72
2017-05-01T12:48:37.183Z,17.70
2017-05-01T12:51:03.871Z,18.78
2017-05-01T12:53:30.547Z,17.86
2017-05-01T12:55:57.222Z,18.40
2017-05-01T12:58:23.922Z,18.70
2017-05-01T13:00:50.597Z,18.60
2017-05-01T13:03:17.266Z,16.92
2017-05-01T13:05:44.904Z,17.70
2017-05-01T13:08:11.573Z,18.00
2017-05-01T13:10:38.240Z,18.42
2017-05-01T13:13:05.936Z,18.16
2017-05-01T13:15:32.612Z,17.32
2017-05-01T13:17:59.298Z,16.88
2017-05-01T13:20:26.006Z,19.34
2017-05-01T13:22:52.677Z,16.72
2017-05-01T13:25:19.351Z,17.26
2017-05-01T13:27:46.077Z,18.42
2017-05-01T13:30:12.749Z,18.78
2017-05-01T13:32:39.433Z,17.06
2017-05-01T13:35:06.129Z,17.18
2017-05-01T13:37:32.824Z,16.38
2017-05-01T13:39:59.492Z,16.34
2017-05-01T13:42:26.309Z,15.80
2017-05-01T13:44:52.984Z,16.84
2017-05-01T13:47:19.666Z,16.16
2017-05-01T13:49:46.465Z,16.86
2017-05-01T13:52:13.149Z,15.44
2017-05-01T13:54:39.818Z,16.00
2017-05-01T13:57:06.518Z,16.36
2017-05-01T13:59:33.192Z,16.28
2017-05-01T14:01:59.867Z,16.70
2017-05-01T14:04:26.579Z,15.70
2017-05-01T14:06:53.253Z,16.68
2017-05-01T14:09:19.921Z,15.76
2017-05-01T14:11:46.613Z,16.12
2017-05-01T14:14:13.294Z,16.22
2017-05-01T14:16:40.235Z,17.10
2017-05-01T14:19:06.932Z,15.78
2017-05-01T14:21:33.613Z,15.78
2017-05-01T14:24:00.295Z,14.26
2017-05-01T14:26:26.987Z,15.70
2017-05-01T14:28:53.654Z,16.32
2017-05-01T14:31:20.325Z,15.74
2017-05-01T14:33:47.030Z,15.94
2017-05-01T14:36:13.712Z,14.66
2017-05-01T14:38:40.389Z,16.80
2017-05-01T14:41:07.114Z,14.64
2017-05-01T14:43:33.788Z,15.02
2017-05-01T14:46:00.465Z,15.86
2017-05-01T14:48:27.186Z,15.08
2017-05-01T14:50:53.882Z,17.58
2017-05-01T14:53:20.556Z,16.90
2017-05-01T14:55:47.257Z,17.12
2017-05-01T14:58:14.937Z,17.30
2017-05-01T15:00:41.621Z,17.18
2017-05-01T15:03:08.328Z,17.58
2017-05-01T15:05:35.010Z,17.20
2017-05-01T15:08:02.597Z,17.04
2017-05-01T15:10:29.289Z,16.80
2017-05-01T15:12:55.985Z,16.78
2017-05-01T15:15:22.660Z,15.70
2017-05-01T15:17:49.655Z,16.58
2017-05-01T15:20:16.324Z,18.08
2017-05-01T15:22:42.994Z,17.02
2017-05-01T15:25:09.751Z,17.84
2017-05-01T15:27:36.433Z,16.80
2017-05-01T15:30:03.111Z,16.70
2017-05-01T15:32:29.860Z,17.08
2017-05-01T15:34:56.549Z,17.30
2017-05-01T15:37:23.221Z,16.62
2017-05-01T15:39:49.940Z,16.06
2017-05-01T15:42:16.609Z,16.95
2017-05-01T15:44:43.297Z,16.30
2017-05-01T15:47:09.996Z,17.05
2017-05-01T15:49:36.683Z,16.78
2017-05-01T15:52:03.362Z,16.14
2017-05-01T15:54:30.247Z,16.04
2017-05-01T15:56:56.926Z,16.84
2017-05-01T15:59:23.599Z,16.86
2017-05-01T16:01:50.299Z,18.40
2017-05-01T16:04:17.087Z,18.02
2017-05-01T16:06:43.777Z,16.44
2017-05-01T16:09:10.482Z,17.76
2017-05-01T16:11:37.201Z,17.66
2017-05-01T16:14:03.923Z,16.76
2017-05-01T16:16:30.727Z,17.66
2017-05-01T16:18:57.440Z,17.12
2017-05-01T16:21:24.132Z,17.24
2017-05-01T16:23:51.123Z,16.74
2017-05-01T16:26:17.838Z,17.42
2017-05-01T16:28:44.546Z,16.30
2017-05-01T16:31:11.269Z,16.68
2017-05-01T16:33:38.023Z,15.46
2017-05-01T16:36:04.725Z,17.16
2017-05-01T16:38:31.438Z,16.98
2017-05-01T16:40:58.227Z,16.46
2017-05-01T16:43:24.930Z,16.12
2017-05-01T16:45:51.802Z,17.00
2017-05-01T16:48:18.500Z,16.04
2017-05-01T16:50:45.417Z,16.38
2017-05-01T16:53:12.131Z,16.88
2017-05-01T16:55:38.831Z,17.44
2017-05-01T16:58:05.530Z,16.06
2017-05-01T17:00:32.248Z,17.08
2017-05-01T17:02:58.969Z,16.96
2017-05-01T17:05:25.669Z,15.66
2017-05-01T17:07:52.446Z,16.10
2017-05-01T17:10:19.148Z,16.00
2017-05-01T17:12:45.862Z,17.30
2017-05-01T17:15:12.562Z,17.38
2017-05-01T17:17:39.252Z,16.64
2017-05-01T17:20:05.952Z,16.40
2017-05-01T17:22:32.650Z,16.54
2017-05-01T17:24:59.373Z,17.02
2017-05-01T17:27:26.458Z,16.90
2017-05-01T17:29:53.159Z,16.18
2017-05-01T17:32:19.891Z,17.00
2017-05-01T17:34:46.591Z,16.90
2017-05-01T17:37:13.373Z,17.70
2017-05-01T17:39:40.140Z,16.82
2017-05-01T17:42:06.853Z,17.12
2017-05-01T17:44:33.590Z,16.64
2017-05-01T17:47:00.346Z,18.50
2017-05-01T17:49:27.073Z,18.50
2017-05-01T17:51:53.772Z,17.60
2017-05-01T17:54:20.473Z,17.30
2017-05-01T17:56:47.182Z,18.18
2017-05-01T17:59:13.876Z,17.48
2017-05-01T18:01:40.602Z,19.62
2017-05-01T18:04:07.446Z,18.70
2017-05-01T18:06:34.150Z,21.00
2017-05-01T18:09:01.044Z,19.12
2017-05-01T18:11:27.766Z,17.40
2017-05-01T18:13:54.473Z,17.80
2017-05-01T18:16:21.375Z,18.20
2017-05-01T18:18:48.075Z,17.44
2017-05-01T18:21:14.806Z,17.88
2017-05-01T18:23:41.521Z,18.10
2017-05-01T18:26:08.251Z,17.12
2017-05-01T18:28:34.928Z,18.32
2017-05-01T18:31:01.671Z,17.78
2017-05-01T18:33:28.375Z,16.62
2017-05-01T18:35:55.107Z,18.04
2017-05-01T18:38:21.819Z,17.40
2017-05-01T18:40:48.512Z,18.16
2017-05-01T18:43:15.254Z,17.32
2017-05-01T18:45:41.935Z,17.84
2017-05-01T18:48:08.619Z,17.74
2017-05-01T18:50:35.584Z,18.42
2017-05-01T18:53:02.268Z,18.08
2017-05-01T18:55:28.947Z,19.68
2017-05-01T18:57:55.640Z,18.56
2017-05-01T19:00:22.299Z,18.88
2017-05-01T19:02:49.316Z,17.48
2017-05-01T19:05:16.007Z,18.36
2017-05-01T19:07:42.694Z,18.34
2017-05-01T19:10:09.391Z,18.42
2017-05-01T19:12:36.106Z,18.74
2017-05-01T19:15:02.780Z,20.10
2017-05-01T19:17:29.496Z,19.86
2017-05-01T19:19:56.188Z,17.30
2017-05-01T19:22:22.864Z,19.44
2017-05-01T19:24:49.547Z,18.38
2017-05-01T19:27:16.255Z,18.34
2017-05-01T19:29:42.936Z,18.68
2017-05-01T19:32:09.635Z,18.28
2017-05-01T19:34:36.336Z,19.86
2017-05-01T19:37:03.036Z,18.32
2017-05-01T19:39:29.724Z,18.98
2017-05-01T19:41:56.424Z,17.86
2017-05-01T19:44:23.131Z,17.84
2017-05-01T19:46:49.931Z,18.82
2017-05-01T19:49:16.691Z,17.40
2017-05-01T19:51:43.408Z,17.86
2017-05-01T19:54:10.095Z,18.10
2017-05-01T19:56:36.779Z,17.54
2017-05-01T19:59:03.476Z,18.24
2017-05-01T20:01:30.160Z,17.16
2017-05-01T20:03:56.865Z,17.04
2017-05-01T20:06:23.555Z,17.98
2017-05-01T20:08:50.252Z,18.90
2017-05-01T20:11:16.934Z,19.26
2017-05-01T20:13:43.624Z,18.50
2017-05-01T20:16:10.379Z,19.24
2017-05-01T20:18:37.086Z,18.40
2017-05-01T20:21:03.980Z,18.48
2017-05-01T20:23:33.541Z,18.46
2017-05-01T20:26:00.247Z,20.00
2017-05-01T20:28:26.943Z,18.14
2017-05-01T20:30:53.680Z,18.08
2017-05-01T20:33:20.368Z,17.52
2017-05-01T20:35:47.055Z,17.70
2017-05-01T20:38:13.746Z,17.48
2017-05-01T20:40:40.419Z,18.30
2017-05-01T20:43:07.087Z,17.62
2017-05-01T20:45:33.812Z,19.08
2017-05-01T20:48:00.491Z,19.00
2017-05-01T20:50:27.182Z,19.26
2017-05-01T20:52:53.857Z,19.52
2017-05-01T20:55:20.555Z,17.78
2017-05-01T20:57:47.242Z,17.56
2017-05-01T21:00:13.923Z,17.74
2017-05-01T21:02:40.606Z,19.60
2017-05-01T21:05:07.327Z,19.06
2017-05-01T21:07:34.045Z,18.18
2017-05-01T21:10:00.727Z,18.54
2017-05-01T21:12:27.420Z,18.58
2017-05-01T21:14:54.128Z,18.84
2017-05-01T21:17:21.156Z,18.02
2017-05-01T21:19:47.895Z,18.58
2017-05-01T21:22:14.684Z,17.10
2017-05-01T21:24:41.370Z,18.50
2017-05-01T21:27:08.315Z,19.88
2017-05-01T21:29:35.022Z,19.60
2017-05-01T21:32:01.713Z,20.04
2017-05-01T21:34:28.403Z,19.40
2017-05-01T21:36:55.096Z,18.46
2017-05-01T21:39:21.823Z,20.10
2017-05-01T21:41:48.504Z,20.28
2017-05-01T21:44:15.199Z,20.58
2017-05-01T21:46:41.883Z,18.78
2017-05-01T21:49:08.571Z,20.72
2017-05-01T21:51:35.266Z,20.04
2017-05-01T21:54:03.175Z,21.26
2017-05-01T21:56:29.871Z,19.78
2017-05-01T21:58:56.559Z,19.12
2017-05-01T22:01:23.250Z,20.16
2017-05-01T22:03:49.938Z,21.56
2017-05-01T22:06:16.624Z,20.40
2017-05-01T22:08:43.312Z,20.24
2017-05-01T22:11:10.003Z,20.44
2017-05-01T22:13:36.739Z,19.92
2017-05-01T22:16:03.712Z,19.72
2017-05-01T22:18:30.399Z,19.00
2017-05-01T22:20:57.171Z,19.08
2017-05-01T22:23:23.937Z,21.50
2017-05-01T22:25:50.644Z,19.88
2017-05-01T22:28:17.340Z,21.78
2017-05-01T22:30:44.050Z,20.72
2017-05-01T22:33:10.719Z,20.22
2017-05-01T22:35:37.562Z,21.12
2017-05-01T22:38:04.233Z,21.24
2017-05-01T22:40:30.897Z,21.72
2017-05-01T22:42:57.627Z,23.02
2017-05-01T22:45:24.308Z,22.68
2017-05-01T22:47:51.039Z,23.58
2017-05-01T22:50:17.867Z,23.48
2017-05-01T22:52:44.614Z,25.08
2017-05-01T22:55:12.341Z,24.14
2017-05-01T22:57:39.039Z,26.28
2017-05-01T23:00:05.721Z,24.64
2017-05-01T23:02:32.453Z,27.12
2017-05-01T23:04:59.143Z,28.06
2017-05-01T23:07:26.125Z,27.92
2017-05-01T23:09:52.821Z,27.27
2017-05-01T23:12:19.540Z,28.96
2017-05-01T23:14:46.274Z,30.06
2017-05-01T23:17:12.983Z,29.73
2017-05-01T23:19:39.684Z,30.66
2017-05-01T23:22:06.398Z,28.22
2017-05-01T23:24:33.090Z,31.42
2017-05-01T23:26:59.773Z,34.26
2017-05-01T23:29:26.505Z,32.34
2017-05-01T23:31:53.213Z,28.98
2017-05-01T23:34:19.926Z,28.50
2017-05-01T23:36:46.647Z,31.82
2017-05-01T23:39:13.349Z,31.16
2017-05-01T23:41:40.066Z,30.16
2017-05-01T23:44:06.758Z,31.20
2017-05-01T23:46:33.447Z,33.16
2017-05-01T23:49:00.160Z,33.16
2017-05-01T23:51:27.188Z,31.72
2017-05-01T23:53:53.914Z,30.20
2017-05-01T23:56:20.620Z,31.16
2017-05-01T23:58:47.332Z,32.22
